Time;durP1;ratioP1;P1;durP2;ratioP2;P2;SDS_P1;SDS_P2;PMS_P1;PMS_P2;Temp;Humidity;BMP_temperature;BMP_pressure;BME280_temperature;BME280_humidity;BME280_pressure;Samples;Min_cycle;Max_cycle;Signal;HPM_P1;HPM_P2
2023/04/07 00:02:45;;;;;;;2.85;1.08;;;16.00;22.90;;;;;;20837627;28;20041;-57
2023/04/07 00:12:47;;;;;;;2.63;1.20;;;15.90;22.80;;;;;;20837291;28;20053;-57
2023/04/07 00:22:48;;;;;;;2.38;1.10;;;15.80;22.90;;;;;;20835576;28;20046;-57
2023/04/07 00:32:50;;;;;;;3.40;1.17;;;15.80;23.00;;;;;;20836025;28;20049;-56
2023/04/07 00:42:51;;;;;;;5.03;1.40;;;15.60;23.20;;;;;;20835136;28;20053;-57
2023/04/07 00:52:55;;;;;;;4.30;1.30;;;15.40;23.60;;;;;;20834365;28;20045;-56
2023/04/07 01:03:03;;;;;;;2.97;1.00;;;15.40;23.40;;;;;;20832180;28;20103;-55
2023/04/07 01:13:07;;;;;;;4.25;1.17;;;15.30;23.40;;;;;;20831789;28;20510;-56
2023/04/07 01:23:20;;;;;;;2.20;1.30;;;15.20;23.70;;;;;;20831156;28;20045;-56
2023/04/07 01:33:23;;;;;;;2.97;1.02;;;15.10;24.10;;;;;;20830699;28;20085;-57
2023/04/07 01:43:27;;;;;;;2.83;1.20;;;15.00;24.10;;;;;;20831260;28;20049;-57
2023/04/07 01:53:29;;;;;;;1.80;1.20;;;14.90;24.50;;;;;;20830798;28;20512;-57
2023/04/07 02:03:40;;;;;;;3.53;1.05;;;14.90;24.60;;;;;;20830304;28;20140;-56
2023/04/07 02:13:42;;;;;;;2.15;1.20;;;14.70;24.80;;;;;;20829431;28;20099;-57
2023/04/07 02:23:45;;;;;;;4.38;1.30;;;14.70;24.80;;;;;;20836224;28;20053;-57
2023/04/07 02:33:46;;;;;;;2.83;1.40;;;14.60;25.30;;;;;;20845204;28;20042;-56
2023/04/07 02:43:48;;;;;;;2.80;1.52;;;14.60;25.30;;;;;;20844608;28;20052;-57
2023/04/07 02:53:49;;;;;;;2.15;1.17;;;14.40;25.70;;;;;;20843614;28;20056;-57
2023/04/07 03:03:50;;;;;;;3.17;1.00;;;14.20;25.90;;;;;;20841667;28;20045;-57
2023/04/07 03:13:52;;;;;;;1.92;0.90;;;14.20;26.20;;;;;;20841683;28;20139;-56
2023/04/07 03:23:54;;;;;;;2.47;1.10;;;14.10;26.50;;;;;;20840182;28;20056;-56
2023/04/07 03:33:55;;;;;;;3.95;1.40;;;14.00;26.50;;;;;;20839770;28;20120;-56
2023/04/07 03:43:57;;;;;;;4.93;1.55;;;13.90;26.70;;;;;;20840068;28;20050;-56
2023/04/07 03:53:58;;;;;;;3.60;1.45;;;13.80;27.20;;;;;;20839271;28;20046;-56
2023/04/07 04:04:00;;;;;;;3.95;1.58;;;13.70;27.30;;;;;;20837380;28;20053;-57
2023/04/07 04:14:01;;;;;;;3.20;1.40;;;13.70;27.50;;;;;;20837483;28;20057;-56
2023/04/07 04:24:03;;;;;;;5.18;2.20;;;13.60;27.70;;;;;;20835710;28;20144;-56
2023/04/07 04:34:04;;;;;;;6.55;2.28;;;13.70;28.00;;;;;;20834849;28;20111;-57
2023/04/07 04:44:06;;;;;;;4.20;1.30;;;13.70;28.10;;;;;;20835712;28;20502;-57
2023/04/07 04:54:07;;;;;;;4.13;1.40;;;13.50;28.10;;;;;;20833489;28;20099;-56
2023/04/07 05:04:09;;;;;;;3.25;1.30;;;13.40;28.10;;;;;;20834013;28;20052;-56
2023/04/07 05:14:10;;;;;;;5.07;1.20;;;13.00;31.40;;;;;;20832703;28;20049;-55
2023/04/07 05:24:12;;;;;;;2.40;1.20;;;12.40;33.00;;;;;;20832725;28;20050;-56
2023/04/07 05:34:13;;;;;;;3.38;1.20;;;11.90;33.20;;;;;;20831963;28;20466;-57
2023/04/07 05:44:15;;;;;;;1.70;1.00;;;11.60;34.10;;;;;;20831477;28;20046;-56
2023/04/07 05:54:16;;;;;;;5.55;1.60;;;11.40;34.80;;;;;;20831553;28;20053;-55
2023/04/07 06:04:17;;;;;;;2.53;1.20;;;11.30;35.80;;;;;;20846663;28;20396;-56
2023/04/07 06:14:19;;;;;;;3.17;1.58;;;11.10;36.90;;;;;;20846360;28;20054;-56
2023/04/07 06:24:23;;;;;;;3.10;1.23;;;10.70;37.50;;;;;;20844925;28;20053;-57
2023/04/07 06:34:25;;;;;;;6.17;1.50;;;10.70;37.70;;;;;;20845333;28;20050;-56
2023/04/07 06:44:26;;;;;;;4.55;1.83;;;10.70;37.80;;;;;;20843984;28;20041;-57
2023/04/07 06:54:27;;;;;;;4.82;1.63;;;11.00;37.40;;;;;;20841218;28;20042;-56
2023/04/07 07:04:29;;;;;;;3.30;1.77;;;11.30;37.40;;;;;;20840712;28;20077;-57
2023/04/07 07:14:30;;;;;;;4.28;1.50;;;11.60;37.10;;;;;;20841608;28;20053;-57
2023/04/07 07:24:32;;;;;;;2.58;1.42;;;11.90;35.90;;;;;;20839971;28;20045;-58
2023/04/07 07:34:34;;;;;;;4.65;1.77;;;12.10;35.80;;;;;;20840523;28;20060;-56
2023/04/07 07:44:35;;;;;;;5.18;1.85;;;12.30;34.90;;;;;;20837316;28;20050;-56
2023/04/07 07:54:37;;;;;;;3.50;1.70;;;12.70;34.50;;;;;;20837105;28;20042;-56
2023/04/07 08:04:38;;;;;;;7.35;2.45;;;13.20;33.90;;;;;;20837241;28;20598;-55
2023/04/07 08:14:40;;;;;;;6.05;2.08;;;13.40;33.20;;;;;;20835701;28;20057;-56
2023/04/07 08:24:41;;;;;;;4.10;1.60;;;13.90;32.50;;;;;;20835872;28;20471;-57
2023/04/07 08:34:42;;;;;;;2.40;1.40;;;14.40;31.40;;;;;;20836058;28;20057;-57
2023/04/07 08:44:46;;;;;;;2.25;1.38;;;14.80;31.00;;;;;;20834639;28;20053;-56
2023/04/07 08:54:48;;;;;;;5.20;1.73;;;15.30;30.10;;;;;;20833745;28;20052;-59
2023/04/07 09:04:50;;;;;;;4.95;2.00;;;15.70;30.10;;;;;;20833123;28;20404;-57
2023/04/07 09:14:52;;;;;;;3.58;1.40;;;16.10;29.90;;;;;;20830517;28;20060;-57
2023/04/07 09:25:18;;;;;;;3.97;1.48;;;16.40;29.70;;;;;;20831716;28;20119;-58
2023/04/07 09:35:22;;;;;;;5.28;1.60;;;16.60;29.40;;;;;;20830805;28;20053;-57
2023/04/07 09:45:25;;;;;;;;;;;16.60;29.50;;;;;;20830195;28;20064;-58
2023/04/07 09:55:27;;;;;;;3.92;1.15;;;16.70;29.50;;;;;;20829384;28;19921;-56
2023/04/07 10:05:31;;;;;;;3.25;1.25;;;16.90;29.00;;;;;;20830600;28;20046;-57
2023/04/07 10:15:34;;;;;;;3.72;1.20;;;16.90;28.80;;;;;;20829050;28;20103;-56
2023/04/07 10:25:39;;;;;;;4.10;1.70;;;17.20;28.30;;;;;;20828467;28;20048;-57
2023/04/07 10:36:17;;;;;;;5.15;1.27;;;17.60;28.00;;;;;;20829248;28;20406;-58
2023/04/07 10:46:18;;;;;;;4.68;1.52;;;18.00;27.20;;;;;;20787755;28;20507;-57
2023/04/07 10:56:20;;;;;;;4.13;1.27;;;18.20;27.00;;;;;;20842797;28;20045;-59
2023/04/07 11:06:22;;;;;;;6.38;1.48;;;18.40;26.50;;;;;;20843048;28;20049;-58
2023/04/07 11:16:35;;;;;;;3.58;1.35;;;18.70;26.30;;;;;;20841379;28;20108;-57
2023/04/07 11:26:38;;;;;;;3.30;1.20;;;19.00;25.40;;;;;;20841779;28;20096;-58
2023/04/07 11:36:41;;;;;;;4.90;1.77;;;19.20;25.10;;;;;;20839352;28;20045;-56
2023/04/07 11:46:59;;;;;;;4.80;1.65;;;19.40;25.40;;;;;;20840242;28;20128;-56
2023/04/07 11:57:01;;;;;;;2.00;1.30;;;19.80;25.50;;;;;;20837624;28;20046;-56
2023/04/07 12:07:08;;;;;;;4.25;1.20;;;20.10;25.10;;;;;;20836463;28;20118;-57
2023/04/07 12:17:22;;;;;;;4.55;1.40;;;20.30;24.10;;;;;;20835900;28;20054;-57
2023/04/07 12:27:24;;;;;;;3.75;1.42;;;20.50;23.70;;;;;;20836947;28;20465;-56
2023/04/07 12:37:26;;;;;;;6.28;1.40;;;20.90;24.00;;;;;;20836235;28;20509;-57
2023/04/07 12:47:27;;;;;;;3.42;1.25;;;21.30;23.80;;;;;;20834127;28;20045;-57
2023/04/07 12:57:29;;;;;;;4.72;1.60;;;21.60;23.40;;;;;;20832766;28;20052;-58
2023/04/07 13:07:31;;;;;;;4.70;1.38;;;21.80;22.70;;;;;;20833425;28;20060;-56
2023/04/07 13:17:35;;;;;;;6.00;3.25;;;22.10;22.20;;;;;;20832341;28;20057;-60
2023/04/07 13:27:36;;;;;;;3.83;1.20;;;22.30;21.80;;;;;;20831561;28;20053;-57
2023/04/07 13:37:37;;;;;;;4.63;1.10;;;22.60;20.90;;;;;;20831933;28;20046;-56
2023/04/07 13:47:39;;;;;;;5.47;1.73;;;22.70;20.00;;;;;;20831680;28;20487;-57
2023/04/07 13:57:40;;;;;;;3.28;1.20;;;22.90;19.60;;;;;;20831119;28;20076;-56
2023/04/07 14:07:42;;;;;;;3.10;1.20;;;23.00;19.10;;;;;;20831188;28;20045;-57
2023/04/07 14:17:43;;;;;;;3.33;1.17;;;23.10;19.20;;;;;;20833647;28;20088;-59
2023/04/07 14:27:44;;;;;;;3.25;1.00;;;23.20;19.00;;;;;;20846270;28;20525;-57
2023/04/07 14:37:46;;;;;;;5.35;2.00;;;23.40;18.40;;;;;;20845387;28;20045;-60
2023/04/07 14:47:47;;;;;;;3.03;1.40;;;23.30;19.20;;;;;;20844637;28;20415;-57
2023/04/07 14:57:49;;;;;;;2.40;1.25;;;23.50;18.30;;;;;;20842566;28;20060;-57
2023/04/07 15:07:51;;;;;;;4.30;1.20;;;23.60;18.50;;;;;;20841315;28;20076;-58
2023/04/07 15:17:52;;;;;;;3.17;1.20;;;23.60;18.30;;;;;;20841045;28;20049;-58
2023/04/07 15:27:54;;;;;;;6.25;1.30;;;23.80;17.80;;;;;;20837814;28;20060;-57
2023/04/07 15:37:55;;;;;;;4.00;0.98;;;23.80;17.90;;;;;;20838983;28;20041;-57
2023/04/07 15:47:56;;;;;;;2.53;1.10;;;23.70;18.10;;;;;;20839287;28;20505;-58
2023/04/07 15:57:58;;;;;;;1.67;0.90;;;23.80;17.70;;;;;;20838277;28;20482;-56
2023/04/07 16:08:00;;;;;;;2.60;0.90;;;23.70;17.90;;;;;;20836987;28;20053;-57
2023/04/07 16:18:05;;;;;;;3.53;1.30;;;23.70;18.10;;;;;;20836050;28;20057;-56
2023/04/07 16:28:06;;;;;;;2.63;1.40;;;23.70;18.10;;;;;;20836629;28;20045;-60
2023/04/07 16:38:07;;;;;;;2.53;1.15;;;23.70;18.00;;;;;;20835553;28;20097;-58
2023/04/07 16:48:08;;;;;;;3.97;1.17;;;23.70;17.90;;;;;;20835042;28;20050;-57
2023/04/07 16:58:10;;;;;;;4.95;1.20;;;23.60;18.30;;;;;;20834243;28;20054;-57
2023/04/07 17:08:11;;;;;;;5.07;1.30;;;23.50;18.10;;;;;;20833499;28;20049;-57
2023/04/07 17:18:13;;;;;;;3.25;1.48;;;23.40;18.20;;;;;;20833594;28;20060;-56
2023/04/07 17:28:14;;;;;;;2.90;1.00;;;23.30;18.50;;;;;;20831356;28;20088;-56
2023/04/07 17:38:16;;;;;;;7.72;1.20;;;23.10;19.20;;;;;;20830487;28;20073;-57
2023/04/07 17:48:19;;;;;;;2.40;1.13;;;23.00;18.80;;;;;;20831412;28;20049;-57
2023/04/07 17:58:20;;;;;;;3.07;1.10;;;22.90;18.80;;;;;;20830309;28;20049;-57
2023/04/07 18:08:22;;;;;;;2.45;1.30;;;22.70;19.00;;;;;;20829287;28;20045;-56
2023/04/07 18:18:24;;;;;;;5.40;1.07;;;22.40;19.20;;;;;;20828191;28;20060;-57
2023/04/07 18:28:25;;;;;;;3.00;1.40;;;22.20;19.30;;;;;;20828691;28;20402;-57
2023/04/07 18:38:27;;;;;;;2.85;1.25;;;22.00;19.30;;;;;;20828523;28;20050;-56
2023/04/07 18:48:28;;;;;;;4.03;1.85;;;21.70;19.40;;;;;;20828716;28;20045;-57
2023/04/07 18:58:30;;;;;;;5.35;2.47;;;21.60;19.70;;;;;;20828527;28;20046;-56
2023/04/07 19:08:32;;;;;;;6.43;2.40;;;21.30;20.10;;;;;;20837706;28;20045;-56
2023/04/07 19:18:33;;;;;;;5.90;2.85;;;21.10;20.50;;;;;;20840910;28;20062;-57
2023/04/07 19:28:34;;;;;;;7.90;3.15;;;20.90;21.00;;;;;;20839340;28;20053;-56
2023/04/07 19:38:36;;;;;;;6.07;2.70;;;20.60;21.30;;;;;;20839934;28;20056;-57
2023/04/07 19:48:38;;;;;;;9.43;3.05;;;20.30;21.60;;;;;;20838534;28;20052;-57
2023/04/07 19:58:40;;;;;;;9.13;3.83;;;20.30;22.10;;;;;;20837024;28;20049;-58
2023/04/07 20:08:41;;;;;;;12.43;5.60;;;20.10;22.20;;;;;;20836505;28;20115;-56
2023/04/07 20:18:43;;;;;;;7.10;4.00;;;20.00;22.90;;;;;;20834259;28;20495;-57
2023/04/07 20:28:44;;;;;;;7.00;3.58;;;19.80;22.80;;;;;;20836030;28;20049;-56
2023/04/07 20:38:46;;;;;;;9.35;4.15;;;19.50;23.30;;;;;;20833972;28;20049;-58
2023/04/07 20:48:47;;;;;;;9.80;4.93;;;19.50;23.80;;;;;;20834068;28;20049;-58
2023/04/07 20:58:49;;;;;;;9.32;4.32;;;19.30;24.20;;;;;;20834268;28;20049;-64
2023/04/07 21:08:50;;;;;;;9.73;4.45;;;19.30;24.70;;;;;;20832997;28;20556;-57
2023/04/07 21:18:52;;;;;;;8.45;2.92;;;19.10;25.10;;;;;;20830642;28;20057;-59
2023/04/07 21:28:53;;;;;;;6.85;2.58;;;18.70;26.00;;;;;;20829467;28;20050;-58
2023/04/07 21:38:55;;;;;;;5.70;2.45;;;18.40;26.50;;;;;;20830447;28;20419;-56
2023/04/07 21:48:57;;;;;;;10.57;3.25;;;18.20;27.00;;;;;;20830040;28;20049;-58
2023/04/07 21:58:58;;;;;;;6.63;3.63;;;18.00;27.90;;;;;;20828338;28;20041;-60
2023/04/07 22:09:00;;;;;;;10.75;3.50;;;17.80;28.60;;;;;;20828136;28;20160;-57
2023/04/07 22:19:01;;;;;;;8.13;3.60;;;17.40;29.60;;;;;;20827772;28;20056;-58
2023/04/07 22:29:02;;;;;;;4.95;2.60;;;17.20;30.50;;;;;;20828808;28;20041;-58
2023/04/07 22:39:04;;;;;;;6.45;3.22;;;17.00;30.90;;;;;;20833634;28;20380;-56
2023/04/07 22:49:06;;;;;;;16.77;12.77;;;16.80;31.50;;;;;;20844879;28;20048;-57
2023/04/07 22:59:07;;;;;;;22.70;3.42;;;16.40;32.40;;;;;;20843074;28;20083;-55
2023/04/07 23:09:09;;;;;;;5.30;2.30;;;16.20;32.70;;;;;;20840771;28;20049;-56
2023/04/07 23:19:14;;;;;;;5.50;2.22;;;16.10;32.90;;;;;;20842570;28;20060;-56
2023/04/07 23:29:15;;;;;;;6.30;2.15;;;16.00;33.00;;;;;;20841889;28;20057;-56
2023/04/07 23:39:17;;;;;;;5.20;2.13;;;15.70;33.50;;;;;;20840966;28;20045;-56
2023/04/07 23:49:18;;;;;;;6.97;3.15;;;15.70;34.00;;;;;;20839423;28;20414;-56
2023/04/07 23:59:19;;;;;;;5.43;2.50;;;15.50;35.40;;;;;;20839744;28;20487;-57
